| time (UTC) | temp C | wind direction | speed KPH | gust KPH | rain 1hr cm | rain 24hr cm | rain mn cm | humidity % | barometer mb |
| 20260906064815 | 26 | 113 | 29.0 | 38.6 | 0.00 | 0.00 | 0.00 | 44 | 1021.9 |
| 20260906063823 | 26 | 115 | 27.4 | 37.0 | 0.00 | 0.00 | 0.00 | 44 | 1021.9 |
| 20260906062842 | 25 | 96 | 16.1 | 17.7 | 0.00 | 0.00 | 0.00 | 44 | 1021.8 |
| 20260906062421 | 25 | 104 | 22.5 | 32.2 | 0.00 | 0.00 | 0.00 | 45 | 1021.8 |
| 20260906061418 | 25 | 103 | 12.9 | 17.7 | 0.00 | 0.00 | 0.00 | 46 | 1021.8 |
| 20260906060416 | 25 | 90 | 12.9 | 16.1 | 0.00 | 0.00 | 0.00 | 47 | 1021.7 |
| 20260906055423 | 25 | 92 | 14.5 | 17.7 | 0.00 | 0.00 | 0.00 | 47 | 1021.7 |
| 20260906054421 | 24 | 91 | 9.7 | 14.5 | 0.00 | 0.00 | 0.00 | 49 | 1021.6 |
| 20260906053419 | 24 | 99 | 14.5 | 14.5 | 0.00 | 0.00 | 0.00 | 49 | 1021.5 |
| 20260906053118 | 24 | 81 | 12.9 | 17.7 | 0.00 | 0.00 | 0.00 | 49 | 1021.4 |
| 20260906052116 | 24 | 90 | 12.9 | 20.9 | 0.00 | 0.00 | 0.00 | 49 | 1021.3 |
| 20260906051124 | 23 | 83 | 12.9 | 17.7 | 0.00 | 0.00 | 0.00 | 50 | 1021.3 |
| 20260906050202 | 23 | 96 | 16.1 | 17.7 | 0.00 | 0.00 | 0.00 | 50 | 1021.1 |
| 20260906045139 | 23 | 90 | 11.3 | 16.1 | 0.00 | 0.00 | 0.00 | 52 | 1021.0 |
| 20260906044117 | 23 | 78 | 16.1 | 19.3 | 0.00 | 0.00 | 0.00 | 52 | 1021.0 |
| 20260906043716 | 23 | 83 | 11.3 | 14.5 | 0.00 | 0.00 | 0.00 | 52 | 1021.0 |
| 20260906042724 | 23 | 73 | 14.5 | 16.1 | 0.00 | 0.00 | 0.00 | 52 | 1020.9 |
| 20260906041742 | 23 | 81 | 12.9 | 17.7 | 0.00 | 0.00 | 0.00 | 52 | 1020.8 |
| 20260906040739 | 24 | 81 | 9.7 | 12.9 | 0.00 | 0.00 | 0.00 | 51 | 1020.8 |
| 20260906035737 | 24 | 100 | 12.9 | 17.7 | 0.00 | 0.00 | 0.00 | 51 | 1020.7 |
| 20260906034724 | 24 | 81 | 16.1 | 22.5 | 0.00 | 0.00 | 0.00 | 51 | 1020.6 |
| 20260906034323 | 24 | 88 | 12.9 | 19.3 | 0.00 | 0.00 | 0.00 | 51 | 1020.5 |
| 20260906033320 | 24 | 94 | 16.1 | 24.1 | 0.00 | 0.00 | 0.00 | 51 | 1020.4 |
| 20260906032358 | 24 | 86 | 11.3 | 16.1 | 0.00 | 0.00 | 0.00 | 51 | 1020.4 |
| 20260906031315 | 25 | 101 | 19.3 | 20.9 | 0.00 | 0.00 | 0.00 | 50 | 1020.3 |
| 20260906030403 | 25 | 105 | 16.1 | 24.1 | 0.00 | 0.00 | 0.00 | 49 | 1020.3 |
| 20260906025321 | 25 | 80 | 17.7 | 20.9 | 0.00 | 0.00 | 0.00 | 48 | 1020.2 |
| 20260906025022 | 25 | 109 | 16.1 | 22.5 | 0.00 | 0.00 | 0.00 | 48 | 1020.2 |
| 20260906024018 | 25 | 81 | 14.5 | 17.7 | 0.00 | 0.00 | 0.00 | 49 | 1020.2 |
| 20260906023015 | 25 | 74 | 11.3 | 16.1 | 0.00 | 0.00 | 0.00 | 48 | 1020.1 |
| 20260906022023 | 25 | 98 | 12.9 | 16.1 | 0.00 | 0.00 | 0.00 | 48 | 1020.1 |
| 20260906021101 | 25 | 99 | 14.5 | 17.7 | 0.00 | 0.00 | 0.00 | 48 | 1020.1 |
| 20260906020019 | 25 | 70 | 12.9 | 16.1 | 0.00 | 0.00 | 0.00 | 48 | 1020.0 |
| 20260906015617 | 25 | 89 | 16.1 | 22.5 | 0.00 | 0.00 | 0.00 | 48 | 1020.0 |
| 20260906014615 | 25 | 100 | 12.9 | 17.7 | 0.00 | 0.00 | 0.00 | 48 | 1020.0 |
| 20260906013622 | 24 | 98 | 9.7 | 14.5 | 0.00 | 0.00 | 0.00 | 52 | 1020.2 |
| 20260906012620 | 24 | 70 | 8.0 | 9.7 | 0.00 | 0.00 | 0.00 | 51 | 1020.2 |
| 20260906011618 | 25 | 70 | 8.0 | 9.7 | 0.00 | 0.00 | 0.00 | 49 | 1020.2 |
| 20260906010616 | 25 | 69 | 8.0 | 9.7 | 0.00 | 0.00 | 0.00 | 50 | 1020.0 |
| 20260906010215 | 25 | 72 | 9.7 | 9.7 | 0.00 | 0.00 | 0.00 | 50 | 1020.0 |
| 20260906005243 | 25 | 60 | 9.7 | 12.9 | 0.00 | 0.00 | 0.00 | 50 | 1020.0 |
| 20260906004220 | 25 | 62 | 6.4 | 9.7 | 0.00 | 0.00 | 0.00 | 49 | 1020.0 |
| 20260906003218 | 25 | 74 | 9.7 | 14.5 | 0.00 | 0.00 | 0.00 | 49 | 1020.0 |
| 20260906002215 | 25 | 83 | 9.7 | 12.9 | 0.00 | 0.00 | 0.00 | 49 | 1020.0 |
| 20260906001224 | 25 | 85 | 11.3 | 16.1 | 0.00 | 0.00 | 0.00 | 49 | 1020.0 |
| 20260906000823 | 25 | 86 | 9.7 | 12.9 | 0.00 | 0.00 | 0.00 | 49 | 1020.0 |
| 20260905235821 | 25 | 85 | 12.9 | 17.7 | 0.00 | 0.00 | 0.00 | 49 | 1019.9 |
| 20260905234818 | 25 | 85 | 9.7 | 11.3 | 0.00 | 0.00 | 0.00 | 50 | 1019.8 |
| 20260905233816 | 25 | 66 | 11.3 | 14.5 | 0.00 | 0.00 | 0.00 | 51 | 1019.7 |
| 20260905232823 | 25 | 60 | 11.3 | 12.9 | 0.00 | 0.00 | 0.00 | 50 | 1019.5 |
| 20260905231822 | 25 | 60 | 6.4 | 8.0 | 0.00 | 0.00 | 0.00 | 50 | 1019.5 |
| 20260905231541 | 25 | 67 | 9.7 | 12.9 | 0.00 | 0.00 | 0.00 | 49 | 1019.5 |
| 20260905230519 | 25 | 62 | 9.7 | 11.3 | 0.00 | 0.00 | 0.00 | 49 | 1019.5 |
| 20260905225516 | 26 | 92 | 11.3 | 14.5 | 0.00 | 0.00 | 0.00 | 49 | 1019.4 |
| 20260905224524 | 25 | 101 | 11.3 | 16.1 | 0.00 | 0.00 | 0.00 | 49 | 1019.4 |
| 20260905223522 | 25 | 88 | 12.9 | 16.1 | 0.00 | 0.00 | 0.00 | 49 | 1019.3 |
| 20260905222520 | 25 | 93 | 11.3 | 14.5 | 0.00 | 0.00 | 0.00 | 50 | 1019.2 |
| 20260905222139 | 25 | 95 | 14.5 | 19.3 | 0.00 | 0.00 | 0.00 | 51 | 1019.3 |
| 20260905221117 | 25 | 84 | 11.3 | 14.5 | 0.00 | 0.00 | 0.00 | 52 | 1019.4 |
| 20260905220124 | 25 | 87 | 12.9 | 16.1 | 0.00 | 0.00 | 0.00 | 52 | 1019.3 |
| 20260905215122 | 25 | 81 | 8.0 | 11.3 | 0.00 | 0.00 | 0.00 | 52 | 1019.2 |
| 20260905214120 | 25 | 79 | 8.0 | 9.7 | 0.00 | 0.00 | 0.00 | 51 | 1019.3 |
| 20260905213118 | 25 | 71 | 8.0 | 9.7 | 0.00 | 0.00 | 0.00 | 50 | 1019.4 |
| 20260905212716 | 25 | 53 | 11.3 | 12.9 | 0.00 | 0.00 | 0.00 | 51 | 1019.4 |
| 20260905211744 | 25 | 71 | 8.0 | 8.0 | 0.00 | 0.00 | 0.00 | 51 | 1019.2 |
| 20260905210721 | 25 | 66 | 6.4 | 8.0 | 0.00 | 0.00 | 0.00 | 51 | 1019.1 |
| 20260905205719 | 26 | 93 | 9.7 | 9.7 | 0.00 | 0.00 | 0.00 | 51 | 1019.2 |
| 20260905204716 | 26 | 80 | 8.0 | 11.3 | 0.00 | 0.00 | 0.00 | 50 | 1019.2 |
| 20260905203714 | 26 | 71 | 8.0 | 9.7 | 0.00 | 0.00 | 0.00 | 51 | 1019.1 |
| 20260905203323 | 26 | 66 | 6.4 | 9.7 | 0.00 | 0.00 | 0.00 | 51 | 1019.0 |
| 20260905202320 | 26 | 54 | 12.9 | 14.5 | 0.00 | 0.00 | 0.00 | 50 | 1019.1 |
| 20260905201318 | 26 | 64 | 14.5 | 17.7 | 0.00 | 0.00 | 0.00 | 50 | 1018.8 |
| 20260905200315 | 26 | 38 | 12.9 | 16.1 | 0.00 | 0.00 | 0.00 | 50 | 1018.6 |
| 20260905195324 | 26 | 49 | 11.3 | 14.5 | 0.00 | 0.00 | 0.00 | 50 | 1018.4 |
| 20260905194322 | 26 | 59 | 11.3 | 12.9 | 0.00 | 0.00 | 0.00 | 49 | 1018.4 |
| 20260905194021 | 26 | 69 | 9.7 | 12.9 | 0.00 | 0.00 | 0.00 | 49 | 1018.4 |
| 20260905193019 | 27 | 48 | 12.9 | 17.7 | 0.00 | 0.00 | 0.00 | 48 | 1018.4 |
| 20260905192036 | 27 | 44 | 11.3 | 12.9 | 0.00 | 0.00 | 0.00 | 48 | 1018.3 |
| 20260905191044 | 27 | 49 | 11.3 | 14.5 | 0.00 | 0.00 | 0.00 | 47 | 1018.2 |
| 20260905190023 | 26 | 50 | 11.3 | 12.9 | 0.00 | 0.00 | 0.00 | 49 | 1018.1 |
| 20260905185019 | 27 | 74 | 9.7 | 12.9 | 0.00 | 0.00 | 0.00 | 47 | 1018.0 |
| 20260905184638 | 27 | 99 | 12.9 | 16.1 | 0.00 | 0.00 | 0.00 | 47 | 1018.0 |
| 20260905183615 | 27 | 108 | 9.7 | 17.7 | 0.00 | 0.00 | 0.00 | 47 | 1017.7 |
| 20260905182623 | 27 | 118 | 14.5 | 20.9 | 0.00 | 0.00 | 0.00 | 46 | 1017.7 |
| 20260905181621 | 27 | 126 | 14.5 | 17.7 | 0.00 | 0.00 | 0.00 | 45 | 1017.6 |
| 20260905180618 | 27 | 113 | 16.1 | 20.9 | 0.00 | 0.00 | 0.00 | 45 | 1017.4 |
| 20260905175616 | 27 | 129 | 17.7 | 20.9 | 0.00 | 0.00 | 0.00 | 45 | 1017.3 |
| 20260905175225 | 28 | 128 | 16.1 | 20.9 | 0.00 | 0.00 | 0.00 | 44 | 1017.1 |
| 20260905174242 | 28 | 132 | 20.9 | 25.7 | 0.00 | 0.00 | 0.00 | 44 | 1017.1 |
| 20260905173219 | 28 | 127 | 20.9 | 25.7 | 0.00 | 0.00 | 0.00 | 44 | 1016.9 |
| 20260905172217 | 28 | 126 | 20.9 | 25.7 | 0.00 | 0.00 | 0.00 | 45 | 1016.7 |
| 20260905171225 | 29 | 134 | 16.1 | 20.9 | 0.00 | 0.00 | 0.00 | 44 | 1016.7 |
| 20260905170223 | 29 | 142 | 14.5 | 16.1 | 0.00 | 0.00 | 0.00 | 44 | 1016.7 |
| 20260905165821 | 29 | 126 | 16.1 | 19.3 | 0.00 | 0.00 | 0.00 | 43 | 1016.7 |
| 20260905164819 | 29 | 195 | 4.8 | 6.4 | 0.00 | 0.00 | 0.00 | 51 | 1016.5 |
| 20260905163816 | 30 | 209 | 4.8 | 6.4 | 0.00 | 0.00 | 0.00 | 51 | 1016.2 |
| 20260905162844 | 30 | 223 | 6.4 | 6.4 | 0.00 | 0.00 | 0.00 | 51 | 1016.0 |
| 20260905161822 | 30 | 246 | 6.4 | 8.0 | 0.00 | 0.00 | 0.00 | 54 | 1016.0 |
| 20260905160840 | 31 | 226 | 6.4 | 6.4 | 0.00 | 0.00 | 0.00 | 51 | 1015.9 |
| 20260905160519 | 31 | 230 | 8.0 | 8.0 | 0.00 | 0.00 | 0.00 | 48 | 1015.9 |
| 20260905155537 | 31 | 208 | 8.0 | 11.3 | 0.00 | 0.00 | 0.00 | 44 | 1015.9 |
| 20260905154524 | 31 | 195 | 9.7 | 12.9 | 0.00 | 0.00 | 0.00 | 47 | 1015.9 |
| 20260905153521 | 31 | 219 | 6.4 | 8.0 | 0.00 | 0.00 | 0.00 | 49 | 1015.8 |
| 20260905152519 | 31 | 199 | 11.3 | 14.5 | 0.00 | 0.00 | 0.00 | 47 | 1015.9 |
| 20260905151538 | 31 | 172 | 8.0 | 9.7 | 0.00 | 0.00 | 0.00 | 42 | 1015.9 |
| 20260905151136 | 31 | 218 | 6.4 | 8.0 | 0.00 | 0.00 | 0.00 | 42 | 1015.8 |
| 20260905150124 | 31 | 199 | 8.0 | 11.3 | 0.00 | 0.00 | 0.00 | 44 | 1015.8 |
| 20260905145142 | 31 | 165 | 9.7 | 11.3 | 0.00 | 0.00 | 0.00 | 43 | 1015.7 |
| 20260905144119 | 31 | 244 | 11.3 | 12.9 | 0.00 | 0.00 | 0.00 | 45 | 1015.7 |
| 20260905143117 | 31 | 230 | 11.3 | 14.5 | 0.00 | 0.00 | 0.00 | 44 | 1015.7 |
| 20260905142115 | 31 | 227 | 9.7 | 9.7 | 0.00 | 0.00 | 0.00 | 45 | 1015.7 |
| 20260905141725 | 31 | 192 | 11.3 | 14.5 | 0.00 | 0.00 | 0.00 | 45 | 1015.8 |
| 20260905140722 | 31 | 221 | 6.4 | 8.0 | 0.00 | 0.00 | 0.00 | 49 | 1015.9 |
| 20260905135719 | 31 | 235 | 6.4 | 11.3 | 0.00 | 0.00 | 0.00 | 49 | 1015.9 |
| 20260905134718 | 31 | 212 | 14.5 | 16.1 | 0.00 | 0.00 | 0.00 | 48 | 1015.9 |
| 20260905133714 | 31 | 277 | 8.0 | 9.7 | 0.00 | 0.00 | 0.00 | 44 | 1015.9 |
| 20260905132743 | 32 | 307 | 4.8 | 6.4 | 0.00 | 0.00 | 0.00 | 41 | 1015.9 |
| 20260905132422 | 32 | 235 | 6.4 | 9.7 | 0.00 | 0.00 | 0.00 | 42 | 1015.9 |
| 20260905131420 | 31 | 35 | 3.2 | 3.2 | 0.00 | 0.00 | 0.00 | 44 | 1015.9 |
| 20260905130417 | 31 | 197 | 6.4 | 9.7 | 0.00 | 0.00 | 0.00 | 41 | 1015.9 |
| 20260905125435 | 31 | 275 | 4.8 | 8.0 | 0.00 | 0.00 | 0.00 | 40 | 1016.2 |
| 20260905124422 | 32 | 259 | 8.0 | 9.7 | 0.00 | 0.00 | 0.00 | 39 | 1016.2 |
| 20260905123441 | 31 | 303 | 12.9 | 16.1 | 0.00 | 0.00 | 0.00 | 39 | 1016.3 |
| 20260905123020 | 31 | 256 | 4.8 | 8.0 | 0.00 | 0.00 | 0.00 | 40 | 1016.4 |
| 20260905122018 | 31 | 282 | 4.8 | 9.7 | 0.00 | 0.00 | 0.00 | 41 | 1016.5 |
| 20260905121015 | 31 | 277 | 3.2 | 6.4 | 0.00 | 0.00 | 0.00 | 38 | 1016.4 |
| 20260905120044 | 31 | 60 | 1.6 | 3.2 | 0.00 | 0.00 | 0.00 | 38 | 1016.5 |
| 20260905115021 | 31 | 285 | 6.4 | 11.3 | 0.00 | 0.00 | 0.00 | 37 | 1016.5 |
| 20260905114018 | 31 | 203 | 1.6 | 3.2 | 0.00 | 0.00 | 0.00 | 37 | 1016.6 |
| 20260905113617 | 31 | 315 | 3.2 | 6.4 | 0.00 | 0.00 | 0.00 | 36 | 1016.5 |
| 20260905112625 | 31 | 45 | 6.4 | 9.7 | 0.00 | 0.00 | 0.00 | 35 | 1016.6 |
| 20260905111622 | 30 | 80 | 3.2 | 6.4 | 0.00 | 0.00 | 0.00 | 36 | 1016.6 |
| 20260905110619 | 30 | 357 | 9.7 | 11.3 | 0.00 | 0.00 | 0.00 | 36 | 1016.7 |
| 20260905105657 | 30 | 293 | 11.3 | 14.5 | 0.00 | 0.00 | 0.00 | 38 | 1016.6 |
| 20260905104615 | 30 | 313 | 8.0 | 9.7 | 0.00 | 0.00 | 0.00 | 40 | 1016.7 |
| 20260905104225 | 30 | 333 | 4.8 | 6.4 | 0.00 | 0.00 | 0.00 | 39 | 1016.7 |
| 20260905103222 | 29 | 309 | 9.7 | 11.3 | 0.00 | 0.00 | 0.00 | 40 | 1016.7 |
| 20260905102239 | 29 | 286 | 11.3 | 14.5 | 0.00 | 0.00 | 0.00 | 40 | 1016.7 |
| 20260905101217 | 30 | 210 | 1.6 | 3.2 | 0.00 | 0.00 | 0.00 | 34 | 1016.9 |
| 20260905100215 | 30 | 307 | 3.2 | 3.2 | 0.00 | 0.00 | 0.00 | 31 | 1016.9 |
| 20260905095223 | 30 | 155 | 1.6 | 1.6 | 0.00 | 0.00 | 0.00 | 39 | 1017.0 |
| 20260905094942 | 29 | 227 | 3.2 | 4.8 | 0.00 | 0.00 | 0.00 | 38 | 1016.9 |
| 20260905093920 | 29 | 204 | 6.4 | 8.0 | 0.00 | 0.00 | 0.00 | 38 | 1016.7 |
| 20260905092918 | 29 | 148 | 3.2 | 6.4 | 0.00 | 0.00 | 0.00 | 39 | 1016.8 |
| 20260905091915 | 28 | 112 | 3.2 | 4.8 | 0.00 | 0.00 | 0.00 | 40 | 1016.9 |
| 20260905090923 | 28 | 90 | 3.2 | 3.2 | 0.00 | 0.00 | 0.00 | 41 | 1016.7 |
| 20260905085921 | 28 | 82 | 3.2 | 8.0 | 0.00 | 0.00 | 0.00 | 42 | 1016.7 |
| 20260905085519 | 28 | 107 | 3.2 | 8.0 | 0.00 | 0.00 | 0.00 | 43 | 1016.8 |
| 20260905084517 | 28 | 121 | 3.2 | 4.8 | 0.00 | 0.00 | 0.00 | 47 | 1016.7 |
| 20260905083524 | 27 | 139 | 4.8 | 8.0 | 0.00 | 0.00 | 0.00 | 46 | 1016.7 |
| 20260905082522 | 27 | 181 | 3.2 | 4.8 | 0.00 | 0.00 | 0.00 | 52 | 1016.6 |
| 20260905081519 | 26 | 195 | 3.2 | 3.2 | 0.00 | 0.00 | 0.00 | 53 | 1016.6 |
| 20260905080518 | 26 | 162 | 3.2 | 4.8 | 0.00 | 0.00 | 0.00 | 50 | 1016.5 |
| 20260905080116 | 27 | 153 | 3.2 | 8.0 | 0.00 | 0.00 | 0.00 | 48 | 1016.6 |
| 20260905075123 | 26 | 65 | 3.2 | 4.8 | 0.00 | 0.00 | 0.00 | 51 | 1016.5 |
| 20260905074121 | 25 | 126 | 1.6 | 3.2 | 0.00 | 0.00 | 0.00 | 55 | 1016.5 |
| 20260905073119 | 25 | 112 | 1.6 | 3.2 | 0.00 | 0.00 | 0.00 | 59 | 1016.5 |
| 20260905072116 | 23 | 330 | 0.0 | 0.0 | 0.00 | 0.00 | 0.00 | 63 | 1016.3 |
| 20260905071125 | 23 | 0.0 | 0.0 | 0.00 | 0.00 | 0.00 | 67 | 1016.3 | |
| 20260905070824 | 23 | 0.0 | 0.0 | 0.00 | 0.00 | 0.00 | 66 | 1016.3 | |
| 20260905065822 | 23 | 171 | 1.6 | 3.2 | 0.00 | 0.00 | 0.00 | 64 | 1016.3 |